ADDS TAF Board (Experimental) INFO

IDs: Format: Expanded Condensed

Updated at: 1317 UTC 23 Nov 2014

KPIT - Pittsburgh Intl, PA, US

Issued at 1129 UTC 23 Nov 2014
Time1251Z23/14Z23/15Z23/16Z23/17Z23/18Z23/19Z23/20Z23/21Z23/22Z23/23Z24/00Z24/01Z24/02Z
TypeOBSPRVLPRVLPRVLPRVLPRVLPRVLPRVLPRVLPRVLPRVLPRVLPRVLPRVL
VIS10>6>6>6>6>6>6>6>6>6>6>6>66
CIG10050505020020020020020020020020020050
CoverOVCBKNBKNBKNBKNBKNBKNBKNBKNBKNBKNBKNBKNBKN
FltCat--VFRVFRVFRVFRVFRVFRVFRVFRVFRVFRVFRVFRVFR
WX---------------------------RA
WDir130170170170170170170170170170170170170150
WSpd46666666666668
WGst----------------------------
R10/28
XWnd-2-6-6-6-6-6-6-6-6-6-6-6-6-7
HWnd31111111111114
R14/32
XWnd0-3-3-3-3-3-3-3-3-3-3-3-3-2
HWnd45555555555558
Raw TAF
KPIT 231129Z 2312/2418 17006KT P6SM BKN050
  FM231700 17006KT P6SM SCT050 BKN200
  FM240200 15008KT 6SM -RA BKN050
  FM240400 18012G18KT 5SM -RA OVC025
  FM241200 20012G20KT P6SM OVC025


Raw METAR
KPIT 231251Z 13004KT 10SM FEW070 BKN100 OVC250 07/M01 A3008 RMK AO2 SLP200 T00721011

TAF Board Legend

Hazard VFR MVFR IFR LIFR
Visibility (sm) >5 3≤X≤5 1≤X<3 <1
Ceiling (100 ft) >30 10≤X≤30 5≤X<10 <5
Wind Speed (kt) <10 10≤X<20 20≤X<30 ≥30
Wind Gust (kt) <15 15≤X<25 25≤X<35 ≥35
Weather No Wx Reported VCTS,-TS,-FZRA TS,FZRA +TS,+FZRA


Page loaded:  13:17 UTC  |   05:17 AM Pacific  |   06:17 AM Mountain  |   07:17 AM Central  |   08:17 AM Eastern

 

ADVISORIES

FORECASTS

FORECASTS

OBSERVATIONS

USER TOOLS

ABOUT US